createdAt,value
2022-10-20T00:03:30.916Z,9.50
2022-10-20T00:07:12.825Z,10.30
2022-10-20T00:10:56.077Z,9.65
2022-10-20T00:14:38.617Z,9.93
2022-10-20T00:18:20.898Z,8.98
2022-10-20T00:22:02.709Z,9.07
2022-10-20T00:25:44.514Z,9.65
2022-10-20T00:29:26.337Z,8.25
2022-10-20T00:33:08.228Z,8.27
2022-10-20T00:36:51.373Z,8.95
2022-10-20T00:40:33.520Z,8.05
2022-10-20T00:44:48.903Z,8.48
2022-10-20T00:48:32.134Z,8.43
2022-10-20T00:52:18.621Z,8.50
2022-10-20T00:56:01.399Z,7.70
2022-10-20T00:59:43.846Z,8.13
2022-10-20T01:03:34.978Z,7.85
2022-10-20T01:07:16.846Z,7.40
2022-10-20T01:11:10.297Z,7.88
2022-10-20T01:14:54.856Z,7.18
2022-10-20T01:19:30.572Z,6.95
2022-10-20T01:23:18.151Z,5.78
2022-10-20T01:27:11.883Z,6.85
2022-10-20T01:31:02.008Z,6.22
2022-10-20T01:34:52.934Z,7.57
2022-10-20T01:38:50.799Z,6.38
2022-10-20T01:42:32.723Z,6.00
2022-10-20T01:46:17.673Z,5.85
2022-10-20T01:49:59.899Z,5.55
2022-10-20T01:53:41.722Z,5.55
2022-10-20T01:57:37.597Z,5.13
2022-10-20T02:01:34.512Z,5.30
2022-10-20T02:05:46.230Z,6.20
2022-10-20T02:09:35.707Z,5.68
2022-10-20T02:13:20.041Z,6.45
2022-10-20T02:17:11.424Z,5.45
2022-10-20T02:20:57.067Z,5.03
2022-10-20T02:24:41.834Z,5.13
2022-10-20T02:28:25.643Z,5.80
2022-10-20T02:32:09.559Z,4.90
2022-10-20T02:35:56.863Z,5.93
2022-10-20T02:39:38.826Z,5.72
2022-10-20T02:43:20.683Z,5.85
2022-10-20T02:47:02.573Z,5.60
2022-10-20T02:50:44.441Z,6.72
2022-10-20T02:54:28.694Z,6.40
2022-10-20T02:58:10.838Z,5.32
2022-10-20T03:01:52.794Z,5.70
2022-10-20T03:05:39.431Z,5.18
2022-10-20T03:09:21.345Z,5.75
2022-10-20T03:13:03.682Z,4.55
2022-10-20T03:16:45.592Z,5.28
2022-10-20T03:20:27.373Z,4.60
2022-10-20T03:24:09.292Z,4.97
2022-10-20T03:27:51.327Z,5.60
2022-10-20T03:31:33.464Z,5.07
2022-10-20T03:35:15.547Z,5.18
2022-10-20T03:38:57.415Z,5.20
2022-10-20T03:42:39.362Z,4.47
2022-10-20T03:46:21.347Z,4.28
2022-10-20T03:53:47.227Z,5.18
2022-10-20T03:57:29.030Z,4.88
2022-10-20T04:01:15.434Z,4.90
2022-10-20T04:04:57.410Z,4.80
2022-10-20T04:08:39.423Z,5.80
2022-10-20T04:12:21.297Z,5.82
2022-10-20T04:16:03.407Z,6.28
2022-10-20T04:19:45.563Z,4.82
2022-10-20T04:23:27.443Z,5.32
2022-10-20T04:27:09.342Z,4.80
2022-10-20T04:30:51.197Z,4.53
2022-10-20T04:34:33.086Z,4.18
2022-10-20T04:38:14.928Z,5.07
2022-10-20T04:41:56.876Z,4.47
2022-10-20T04:45:38.692Z,4.75
2022-10-20T04:49:20.884Z,5.03
2022-10-20T04:53:02.700Z,4.85
2022-10-20T04:56:44.571Z,4.95
2022-10-20T05:00:26.520Z,4.95
2022-10-20T05:04:09.160Z,5.60
2022-10-20T05:07:50.982Z,5.10
2022-10-20T05:11:35.952Z,4.50
2022-10-20T05:15:17.827Z,4.03
2022-10-20T05:19:00.283Z,5.15
2022-10-20T05:22:42.146Z,4.95
2022-10-20T05:26:25.148Z,5.40
2022-10-20T05:30:07.518Z,5.05
2022-10-20T05:33:54.956Z,4.30
2022-10-20T05:37:36.745Z,4.90
2022-10-20T05:41:20.991Z,5.22
2022-10-20T05:45:03.130Z,5.20
2022-10-20T05:48:45.720Z,4.45
2022-10-20T05:52:27.534Z,4.28
2022-10-20T05:56:14.825Z,4.10
2022-10-20T05:59:56.651Z,4.43
2022-10-20T06:03:38.463Z,4.13
2022-10-20T06:07:20.306Z,3.53
2022-10-20T06:11:04.604Z,4.00
2022-10-20T06:14:46.438Z,3.92
2022-10-20T06:18:28.288Z,3.45
2022-10-20T06:22:10.304Z,3.83
2022-10-20T06:25:52.145Z,3.30
2022-10-20T06:29:33.985Z,4.60
2022-10-20T06:33:16.958Z,4.10
2022-10-20T06:36:58.843Z,3.00
2022-10-20T06:40:40.780Z,3.92
2022-10-20T06:44:24.186Z,3.22
2022-10-20T06:48:06.222Z,3.30
2022-10-20T06:51:48.233Z,3.28
2022-10-20T06:55:30.059Z,2.20
2022-10-20T06:59:11.875Z,2.65
2022-10-20T07:02:53.722Z,2.00
2022-10-20T07:06:40.807Z,3.00
2022-10-20T07:10:22.618Z,3.42
2022-10-20T07:14:04.955Z,2.47
2022-10-20T07:17:48.923Z,3.25
2022-10-20T07:21:35.806Z,3.28
2022-10-20T07:25:21.852Z,3.95
2022-10-20T07:29:04.518Z,2.58
2022-10-20T07:32:46.603Z,2.90
2022-10-20T07:36:34.938Z,2.83
2022-10-20T07:40:18.247Z,2.65
2022-10-20T07:44:00.407Z,3.08
2022-10-20T07:47:44.226Z,3.38
2022-10-20T07:51:31.059Z,3.35
2022-10-20T07:55:33.543Z,2.50
2022-10-20T07:59:15.097Z,3.05
2022-10-20T08:02:57.179Z,3.38
2022-10-20T08:06:39.683Z,2.60
2022-10-20T08:10:21.622Z,2.72
2022-10-20T08:14:03.558Z,2.55
2022-10-20T08:17:45.390Z,2.63
2022-10-20T08:21:27.392Z,2.50
2022-10-20T08:25:14.524Z,2.47
2022-10-20T08:28:56.384Z,2.45
2022-10-20T08:32:38.443Z,2.28
2022-10-20T08:36:21.349Z,1.92
2022-10-20T08:40:04.680Z,1.83
2022-10-20T08:43:48.399Z,1.88
2022-10-20T08:47:35.333Z,1.45
2022-10-20T08:51:23.737Z,2.33
2022-10-20T08:55:06.407Z,1.65
2022-10-20T08:58:48.278Z,1.30
2022-10-20T09:02:34.467Z,1.02
2022-10-20T09:06:17.097Z,1.70
2022-10-20T09:10:11.865Z,1.95
2022-10-20T09:13:54.211Z,1.75
2022-10-20T09:17:36.344Z,2.00
2022-10-20T09:21:21.857Z,2.03
2022-10-20T09:25:04.435Z,2.00
2022-10-20T09:29:11.938Z,1.92
2022-10-20T09:32:53.691Z,1.55
2022-10-20T09:36:38.618Z,2.15
2022-10-20T09:40:22.718Z,1.00
2022-10-20T09:44:08.910Z,1.15
2022-10-20T09:47:55.548Z,1.08
2022-10-20T09:55:34.062Z,1.50
2022-10-20T09:59:21.730Z,1.20
2022-10-20T10:03:21.715Z,0.98
2022-10-20T10:07:05.752Z,1.15
2022-10-20T10:11:03.504Z,0.98
2022-10-20T10:15:06.348Z,1.20
2022-10-20T10:18:56.137Z,1.38
2022-10-20T10:22:39.437Z,1.50
2022-10-20T10:26:40.180Z,1.52
2022-10-20T10:30:27.742Z,1.08
2022-10-20T10:34:12.443Z,1.50
2022-10-20T10:37:55.325Z,1.35
2022-10-20T10:42:04.794Z,1.38
2022-10-20T10:46:26.171Z,1.35
2022-10-20T10:50:31.408Z,1.58
2022-10-20T10:54:49.401Z,2.15
2022-10-20T10:58:40.082Z,1.67
2022-10-20T11:02:58.805Z,1.90
2022-10-20T11:06:57.113Z,1.98
2022-10-20T11:11:01.358Z,1.92
2022-10-20T11:15:04.984Z,1.55
2022-10-20T11:19:04.686Z,1.80
2022-10-20T11:22:52.678Z,1.42
2022-10-20T11:26:38.252Z,1.30
2022-10-20T11:30:22.185Z,1.50
2022-10-20T11:34:43.043Z,1.77
2022-10-20T11:38:41.787Z,1.48
2022-10-20T11:42:37.531Z,2.10
2022-10-20T11:46:27.910Z,2.50
2022-10-20T11:50:12.125Z,1.55
2022-10-20T11:54:09.131Z,2.45
2022-10-20T11:58:09.982Z,2.50
2022-10-20T12:02:29.459Z,1.70
2022-10-20T12:06:38.552Z,1.50
2022-10-20T12:10:26.165Z,1.70
2022-10-20T12:14:14.026Z,1.30
2022-10-20T12:18:03.544Z,1.75
2022-10-20T12:22:00.847Z,1.40
2022-10-20T12:25:42.812Z,1.60
2022-10-20T12:29:30.503Z,1.15
2022-10-20T12:33:17.281Z,1.17
2022-10-20T12:37:08.610Z,1.02
2022-10-20T12:40:58.028Z,1.15
2022-10-20T12:44:43.089Z,1.77
2022-10-20T12:48:25.757Z,0.80
2022-10-20T12:52:16.656Z,0.50
2022-10-20T12:56:10.448Z,0.28
2022-10-20T12:59:52.744Z,0.50
2022-10-20T13:03:48.760Z,0.40
2022-10-20T13:07:49.258Z,0.30
2022-10-20T13:11:40.979Z,0.40
2022-10-20T13:15:26.373Z,0.20
2022-10-20T13:19:13.880Z,0.60
2022-10-20T13:22:57.113Z,0.30
2022-10-20T13:26:50.686Z,0.40
2022-10-20T13:30:34.675Z,0.25
2022-10-20T13:34:28.767Z,0.30
2022-10-20T13:38:21.560Z,0.32
2022-10-20T13:42:35.782Z,0.40
2022-10-20T13:46:36.279Z,0.55
2022-10-20T13:50:21.389Z,1.08
2022-10-20T13:54:06.311Z,1.23
2022-10-20T13:58:08.465Z,0.70
2022-10-20T14:01:59.837Z,1.13
2022-10-20T14:05:41.699Z,0.55
2022-10-20T14:09:25.514Z,1.40
2022-10-20T14:13:14.424Z,1.20
2022-10-20T14:17:01.983Z,1.30
2022-10-20T14:20:59.210Z,1.38
2022-10-20T14:24:44.842Z,1.23
2022-10-20T14:28:32.698Z,0.80
2022-10-20T14:32:19.869Z,1.33
2022-10-20T14:36:02.810Z,0.93
2022-10-20T14:39:50.137Z,0.70
2022-10-20T14:43:43.203Z,0.77
2022-10-20T14:47:29.414Z,0.60
2022-10-20T14:51:34.481Z,0.90
2022-10-20T14:55:32.696Z,0.83
2022-10-20T14:59:27.136Z,0.82
2022-10-20T15:03:11.303Z,1.00
2022-10-20T15:07:14.541Z,1.02
2022-10-20T15:10:57.571Z,0.85
2022-10-20T15:14:40.426Z,0.93
2022-10-20T15:18:24.060Z,1.25
2022-10-20T15:22:11.151Z,1.52
2022-10-20T15:25:58.726Z,1.20
2022-10-20T15:29:48.935Z,1.25
2022-10-20T15:33:30.760Z,1.50
2022-10-20T15:37:12.559Z,1.50
2022-10-20T15:40:54.399Z,1.58
2022-10-20T15:44:36.238Z,1.88
2022-10-20T15:48:18.768Z,1.08
2022-10-20T15:52:00.584Z,1.35
2022-10-20T15:55:43.175Z,1.55
2022-10-20T15:59:25.040Z,1.52
2022-10-20T16:03:07.413Z,1.13
2022-10-20T16:06:52.440Z,1.55
2022-10-20T16:10:34.910Z,1.40
2022-10-20T16:14:16.720Z,1.45
2022-10-20T16:17:58.981Z,1.25
2022-10-20T16:21:41.447Z,1.40
2022-10-20T16:25:23.346Z,1.17
2022-10-20T16:29:05.318Z,1.05
2022-10-20T16:32:47.110Z,1.30
2022-10-20T16:36:28.954Z,1.48
2022-10-20T16:40:11.260Z,1.20
2022-10-20T16:43:55.241Z,1.20
2022-10-20T16:47:39.941Z,1.05
2022-10-20T16:51:22.043Z,1.13
2022-10-20T16:55:04.113Z,1.48
2022-10-20T16:58:45.990Z,0.85
2022-10-20T17:02:27.867Z,1.33
2022-10-20T17:06:11.022Z,1.33
2022-10-20T17:09:53.044Z,2.08
2022-10-20T17:13:36.296Z,1.50
2022-10-20T17:17:18.237Z,1.52
2022-10-20T17:21:00.534Z,1.33
2022-10-20T17:24:42.380Z,1.73
2022-10-20T17:28:24.162Z,1.30
2022-10-20T17:32:06.256Z,1.55
2022-10-20T17:35:49.170Z,1.52
2022-10-20T17:39:31.042Z,1.27
2022-10-20T17:43:12.882Z,1.08
2022-10-20T17:46:54.690Z,1.55
2022-10-20T17:50:37.119Z,1.40
2022-10-20T17:54:20.377Z,1.10
2022-10-20T17:58:05.671Z,1.48
2022-10-20T18:01:47.902Z,1.33
2022-10-20T18:05:29.783Z,1.10
2022-10-20T18:09:16.868Z,1.00
2022-10-20T18:12:58.873Z,0.88
2022-10-20T18:16:41.137Z,1.90
2022-10-20T18:20:22.942Z,2.17
2022-10-20T18:24:08.264Z,1.75
2022-10-20T18:27:50.150Z,1.70
2022-10-20T18:31:33.458Z,1.80
2022-10-20T18:35:15.452Z,1.75
2022-10-20T18:38:57.318Z,2.05
2022-10-20T18:42:39.434Z,2.03
2022-10-20T18:46:21.824Z,2.55
2022-10-20T18:50:03.934Z,2.40
2022-10-20T18:53:46.593Z,2.50
2022-10-20T18:57:33.090Z,2.20
2022-10-20T19:01:17.687Z,2.35
2022-10-20T19:04:59.599Z,2.42
2022-10-20T19:08:41.524Z,1.55
2022-10-20T19:12:23.699Z,1.85
2022-10-20T19:16:15.688Z,1.70
2022-10-20T19:19:57.503Z,1.95
2022-10-20T19:23:43.003Z,2.00
2022-10-20T19:27:27.235Z,1.48
2022-10-20T19:31:21.231Z,1.60
2022-10-20T19:35:04.264Z,2.03
2022-10-20T19:38:46.461Z,1.52
2022-10-20T19:42:28.274Z,2.28
2022-10-20T19:46:13.683Z,1.55
2022-10-20T19:49:55.608Z,1.98
2022-10-20T19:53:38.334Z,1.35
2022-10-20T19:57:20.163Z,1.10
2022-10-20T20:01:02.957Z,1.65
2022-10-20T20:04:44.782Z,1.70
2022-10-20T20:08:27.044Z,2.05
2022-10-20T20:12:09.170Z,1.88
2022-10-20T20:15:52.447Z,1.73
2022-10-20T20:19:34.345Z,2.03
2022-10-20T20:23:20.068Z,1.83
2022-10-20T20:27:07.775Z,2.45
2022-10-20T20:31:01.060Z,1.70
2022-10-20T20:34:42.886Z,1.85
2022-10-20T20:38:24.739Z,1.65
2022-10-20T20:42:06.544Z,1.33
2022-10-20T20:45:48.431Z,2.13
2022-10-20T20:49:30.448Z,1.90
2022-10-20T20:53:12.396Z,1.50
2022-10-20T20:56:54.298Z,1.70
2022-10-20T21:00:36.134Z,1.63
2022-10-20T21:04:18.100Z,1.65
2022-10-20T21:07:59.902Z,1.65
2022-10-20T21:11:43.001Z,1.75
2022-10-20T21:15:24.836Z,2.53
2022-10-20T21:19:10.832Z,1.50
2022-10-20T21:22:52.659Z,1.85
2022-10-20T21:26:34.562Z,1.60
2022-10-20T21:30:16.463Z,2.28
2022-10-20T21:34:01.072Z,2.67
2022-10-20T21:37:42.896Z,3.45
2022-10-20T21:41:27.327Z,2.55
2022-10-20T21:45:09.476Z,3.80
2022-10-20T21:48:54.611Z,3.47
2022-10-20T21:52:39.215Z,3.65
2022-10-20T21:56:21.218Z,3.80
2022-10-20T22:00:04.304Z,4.13
2022-10-20T22:03:47.433Z,3.55
2022-10-20T22:07:29.382Z,3.20
2022-10-20T22:11:16.831Z,3.38
2022-10-20T22:14:58.676Z,3.22
2022-10-20T22:18:40.725Z,4.18
2022-10-20T22:22:22.534Z,4.82
2022-10-20T22:26:05.385Z,4.10
2022-10-20T22:29:47.299Z,4.50
2022-10-20T22:33:29.135Z,4.43
2022-10-20T22:37:10.953Z,4.15
2022-10-20T22:40:52.764Z,4.53
2022-10-20T22:44:34.559Z,3.78
2022-10-20T22:48:16.383Z,3.88
2022-10-20T22:51:58.211Z,4.00
2022-10-20T22:55:40.020Z,3.92
2022-10-20T22:59:21.870Z,3.55
2022-10-20T23:03:03.750Z,3.10
2022-10-20T23:06:45.613Z,3.13
2022-10-20T23:10:27.548Z,3.28
2022-10-20T23:14:09.362Z,3.13
2022-10-20T23:17:51.159Z,3.15
2022-10-20T23:21:33.246Z,3.05
2022-10-20T23:25:15.275Z,3.00
2022-10-20T23:28:57.074Z,3.10
2022-10-20T23:32:38.879Z,2.60
2022-10-20T23:36:21.131Z,3.08
2022-10-20T23:40:02.983Z,3.00
2022-10-20T23:43:44.922Z,2.75
2022-10-20T23:47:26.792Z,3.25
2022-10-20T23:51:08.990Z,3.88
2022-10-20T23:54:50.755Z,2.70
2022-10-20T23:58:32.635Z,2.45
